createdAt,value
2022-08-17T00:00:34.543Z,3.70
2022-08-17T00:03:15.098Z,3.75
2022-08-17T00:05:47.894Z,4.72
2022-08-17T00:10:44.835Z,4.63
2022-08-17T00:13:14.473Z,4.78
2022-08-17T00:15:42.112Z,4.25
2022-08-17T00:19:06.103Z,4.88
2022-08-17T00:20:58.975Z,4.95
2022-08-17T00:23:28.011Z,5.15
2022-08-17T00:25:56.041Z,5.20
2022-08-17T00:28:23.711Z,4.80
2022-08-17T00:30:53.415Z,5.15
2022-08-17T00:33:24.091Z,4.27
2022-08-17T00:35:51.872Z,4.70
2022-08-17T00:38:19.625Z,4.15
2022-08-17T00:40:52.070Z,5.05
2022-08-17T00:43:37.602Z,4.93
2022-08-17T00:46:07.268Z,4.70
2022-08-17T00:48:35.510Z,4.88
2022-08-17T00:51:17.102Z,5.63
2022-08-17T00:53:45.980Z,4.45
2022-08-17T00:56:17.507Z,5.05
2022-08-17T00:58:45.411Z,4.63
2022-08-17T01:01:21.140Z,4.88
2022-08-17T01:03:50.184Z,4.53
2022-08-17T01:06:17.923Z,5.03
2022-08-17T01:08:45.637Z,5.90
2022-08-17T01:11:13.189Z,4.43
2022-08-17T01:13:43.226Z,5.45
2022-08-17T01:16:17.010Z,4.60
2022-08-17T01:18:46.358Z,4.57
2022-08-17T01:21:19.296Z,4.93
2022-08-17T01:23:46.962Z,4.53
2022-08-17T01:26:14.622Z,4.80
2022-08-17T01:28:55.110Z,4.50
2022-08-17T01:31:24.435Z,4.70
2022-08-17T01:33:52.171Z,5.13
2022-08-17T01:36:20.182Z,4.60
2022-08-17T01:38:47.893Z,4.50
2022-08-17T01:41:28.870Z,5.25
2022-08-17T01:43:58.376Z,4.45
2022-08-17T01:46:31.161Z,4.70
2022-08-17T01:48:59.424Z,4.50
2022-08-17T01:51:30.778Z,4.35
2022-08-17T01:53:59.057Z,4.97
2022-08-17T01:56:27.513Z,4.38
2022-08-17T01:58:55.171Z,4.93
2022-08-17T02:01:25.001Z,4.50
2022-08-17T02:04:00.843Z,4.60
2022-08-17T02:06:52.813Z,4.28
2022-08-17T02:09:23.267Z,4.28
2022-08-17T02:11:53.311Z,4.95
2022-08-17T02:14:22.141Z,4.63
2022-08-17T02:16:49.855Z,4.13
2022-08-17T02:19:17.823Z,4.50
2022-08-17T02:21:46.345Z,4.35
2022-08-17T02:24:16.322Z,4.47
2022-08-17T02:26:46.246Z,5.20
2022-08-17T02:29:15.175Z,4.50
2022-08-17T02:31:43.866Z,5.55
2022-08-17T02:34:11.847Z,4.80
2022-08-17T02:36:39.601Z,4.47
2022-08-17T02:39:09.729Z,5.75
2022-08-17T02:41:38.199Z,4.53
2022-08-17T02:44:06.603Z,4.35
2022-08-17T02:46:34.392Z,4.88
2022-08-17T02:49:02.128Z,4.45
2022-08-17T02:51:29.883Z,5.85
2022-08-17T02:54:41.553Z,5.00
2022-08-17T02:56:45.359Z,5.78
2022-08-17T02:59:13.149Z,5.28
2022-08-17T03:01:40.869Z,4.80
2022-08-17T03:04:08.626Z,3.95
2022-08-17T03:06:37.376Z,4.50
2022-08-17T03:09:05.125Z,4.18
2022-08-17T03:11:32.760Z,4.90
2022-08-17T03:14:00.337Z,4.55
2022-08-17T03:16:28.026Z,4.60
2022-08-17T03:18:55.638Z,4.57
2022-08-17T03:21:23.328Z,4.82
2022-08-17T03:23:54.597Z,5.60
2022-08-17T03:26:22.434Z,4.53
2022-08-17T03:28:50.018Z,4.78
2022-08-17T03:31:18.399Z,4.68
2022-08-17T03:33:46.016Z,4.65
2022-08-17T03:36:13.891Z,4.38
2022-08-17T03:38:41.581Z,5.15
2022-08-17T03:41:09.280Z,4.78
2022-08-17T03:43:36.853Z,5.15
2022-08-17T03:46:27.845Z,6.30
2022-08-17T03:49:22.215Z,5.18
2022-08-17T03:52:08.649Z,6.28
2022-08-17T03:54:54.902Z,5.70
2022-08-17T03:57:22.639Z,5.18
2022-08-17T03:59:50.343Z,5.72
2022-08-17T04:02:20.399Z,5.70
2022-08-17T04:04:52.158Z,5.40
2022-08-17T04:07:21.511Z,5.03
2022-08-17T04:09:49.489Z,5.68
2022-08-17T04:12:18.533Z,6.20
2022-08-17T04:14:52.609Z,6.32
2022-08-17T04:17:23.395Z,5.80
2022-08-17T04:19:51.037Z,5.88
2022-08-17T04:22:31.378Z,6.50
2022-08-17T04:25:02.617Z,6.07
2022-08-17T04:27:30.249Z,5.68
2022-08-17T04:29:58.550Z,5.53
2022-08-17T04:33:02.211Z,6.22
2022-08-17T04:35:18.120Z,5.97
2022-08-17T04:37:45.913Z,5.80
2022-08-17T04:40:32.468Z,6.10
2022-08-17T04:43:13.101Z,6.55
2022-08-17T04:45:55.212Z,5.90
2022-08-17T04:48:36.391Z,6.35
2022-08-17T04:51:12.333Z,6.07
2022-08-17T04:53:40.726Z,6.22
2022-08-17T04:56:11.804Z,6.65
2022-08-17T04:58:48.230Z,6.80
2022-08-17T05:01:23.241Z,6.70
2022-08-17T05:03:56.902Z,6.50
2022-08-17T05:06:24.676Z,6.13
2022-08-17T05:08:52.549Z,5.82
2022-08-17T05:11:20.345Z,6.15
2022-08-17T05:13:50.161Z,5.53
2022-08-17T05:16:18.322Z,5.27
2022-08-17T05:18:46.133Z,5.85
2022-08-17T05:21:14.233Z,4.80
2022-08-17T05:23:43.326Z,6.28
2022-08-17T05:26:24.774Z,5.60
2022-08-17T05:28:59.654Z,7.07
2022-08-17T05:31:29.562Z,6.45
2022-08-17T05:33:57.478Z,7.10
2022-08-17T05:36:38.129Z,6.10
2022-08-17T05:39:16.385Z,6.75
2022-08-17T05:41:44.998Z,6.57
2022-08-17T05:44:12.599Z,5.65
2022-08-17T05:46:42.315Z,6.22
2022-08-17T05:49:11.109Z,6.22
2022-08-17T05:51:49.576Z,5.97
2022-08-17T05:54:35.998Z,5.50
2022-08-17T05:57:22.827Z,6.35
2022-08-17T05:59:59.685Z,6.22
2022-08-17T06:02:44.199Z,5.93
2022-08-17T06:05:30.228Z,6.15
2022-08-17T06:08:07.187Z,5.63
2022-08-17T06:10:41.700Z,4.85
2022-08-17T06:13:15.675Z,5.32
2022-08-17T06:16:01.729Z,5.13
2022-08-17T06:18:32.003Z,4.53
2022-08-17T06:21:03.739Z,4.63
2022-08-17T06:23:34.611Z,4.40
2022-08-17T06:26:09.700Z,4.20
2022-08-17T06:28:54.570Z,4.65
2022-08-17T06:31:37.073Z,4.78
2022-08-17T06:34:11.311Z,4.50
2022-08-17T06:36:42.950Z,4.00
2022-08-17T06:39:22.923Z,4.50
2022-08-17T06:41:51.425Z,4.47
2022-08-17T06:44:50.214Z,4.53
2022-08-17T06:47:28.657Z,4.03
2022-08-17T06:49:59.868Z,4.05
2022-08-17T06:52:45.712Z,4.30
2022-08-17T06:55:18.935Z,4.50
2022-08-17T06:57:50.276Z,4.40
2022-08-17T07:00:19.852Z,4.85
2022-08-17T07:02:52.317Z,4.95
2022-08-17T07:05:23.308Z,4.80
2022-08-17T07:08:17.784Z,4.93
2022-08-17T07:10:48.232Z,4.40
2022-08-17T07:13:26.127Z,4.22
2022-08-17T07:15:57.205Z,4.55
2022-08-17T07:18:27.124Z,3.67
2022-08-17T07:21:17.576Z,4.72
2022-08-17T07:24:29.975Z,3.92
2022-08-17T07:27:10.078Z,3.85
2022-08-17T07:29:42.933Z,3.90
2022-08-17T07:32:27.113Z,5.72
2022-08-17T07:35:07.163Z,3.95
2022-08-17T07:37:39.656Z,4.03
2022-08-17T07:40:17.165Z,3.65
2022-08-17T07:43:01.672Z,3.80
2022-08-17T07:45:50.500Z,4.40
2022-08-17T07:48:20.894Z,3.80
2022-08-17T07:50:50.609Z,3.72
2022-08-17T07:53:19.852Z,3.78
2022-08-17T07:55:47.755Z,4.05
2022-08-17T07:58:20.422Z,4.53
2022-08-17T08:01:05.523Z,4.38
2022-08-17T08:03:34.711Z,4.07
2022-08-17T08:06:05.852Z,3.83
2022-08-17T08:08:36.632Z,3.67
2022-08-17T08:11:09.354Z,3.42
2022-08-17T08:13:42.840Z,4.63
2022-08-17T08:16:16.975Z,3.85
2022-08-17T08:18:55.954Z,3.88
2022-08-17T08:21:44.952Z,4.55
2022-08-17T08:24:21.992Z,3.90
2022-08-17T08:27:02.019Z,4.88
2022-08-17T08:29:35.868Z,3.88
2022-08-17T08:32:04.065Z,4.05
2022-08-17T08:35:00.610Z,4.45
2022-08-17T08:37:46.405Z,4.05
2022-08-17T08:40:22.608Z,3.63
2022-08-17T08:42:54.486Z,3.65
2022-08-17T08:45:26.270Z,4.25
2022-08-17T08:48:05.914Z,4.40
2022-08-17T08:50:48.904Z,4.53
2022-08-17T08:53:27.919Z,3.65
2022-08-17T08:56:00.314Z,3.95
2022-08-17T08:58:41.722Z,4.28
2022-08-17T09:01:17.554Z,3.63
2022-08-17T09:04:20.035Z,4.18
2022-08-17T09:06:58.071Z,6.53
2022-08-17T09:09:34.931Z,4.00
2022-08-17T09:12:22.038Z,3.50
2022-08-17T09:14:57.560Z,3.17
2022-08-17T09:17:35.561Z,3.40
2022-08-17T09:20:27.701Z,3.67
2022-08-17T09:23:03.410Z,3.10
2022-08-17T09:25:35.814Z,3.25
2022-08-17T09:28:03.784Z,3.03
2022-08-17T09:30:50.244Z,3.30
2022-08-17T09:33:23.005Z,3.38
2022-08-17T09:35:54.944Z,3.42
2022-08-17T09:38:35.001Z,2.83
2022-08-17T09:41:25.276Z,3.25
2022-08-17T09:44:23.949Z,3.45
2022-08-17T09:46:55.046Z,3.25
2022-08-17T09:49:25.241Z,3.38
2022-08-17T09:51:56.223Z,2.85
2022-08-17T09:54:39.308Z,3.25
2022-08-17T09:57:30.195Z,2.53
2022-08-17T10:00:09.436Z,3.55
2022-08-17T10:02:51.145Z,2.72
2022-08-17T10:05:34.332Z,2.58
2022-08-17T10:08:21.602Z,3.20
2022-08-17T10:11:08.101Z,2.83
2022-08-17T10:13:52.007Z,3.60
2022-08-17T10:16:39.545Z,4.10
2022-08-17T10:19:13.908Z,3.25
2022-08-17T10:22:32.569Z,3.47
2022-08-17T10:25:23.685Z,3.65
2022-08-17T10:27:55.277Z,3.35
2022-08-17T10:30:24.870Z,3.20
2022-08-17T10:32:57.608Z,3.20
2022-08-17T10:35:28.391Z,2.95
2022-08-17T10:38:02.192Z,2.78
2022-08-17T10:40:35.970Z,3.30
2022-08-17T10:43:22.954Z,2.50
2022-08-17T10:46:09.477Z,3.60
2022-08-17T10:48:44.245Z,3.03
2022-08-17T10:51:13.856Z,3.47
2022-08-17T10:53:41.804Z,2.92
2022-08-17T10:56:12.561Z,3.30
2022-08-17T10:58:40.360Z,2.75
2022-08-17T11:01:12.942Z,2.85
2022-08-17T11:03:52.488Z,2.90
2022-08-17T11:06:36.107Z,2.83
2022-08-17T11:09:23.974Z,2.88
2022-08-17T11:11:59.940Z,2.90
2022-08-17T11:14:30.599Z,2.55
2022-08-17T11:17:01.375Z,3.00
2022-08-17T11:19:32.013Z,3.17
2022-08-17T11:21:59.803Z,2.83
2022-08-17T11:24:37.502Z,2.83
2022-08-17T11:27:20.237Z,2.55
2022-08-17T11:29:56.767Z,2.47
2022-08-17T11:32:47.367Z,3.42
2022-08-17T11:35:21.920Z,2.65
2022-08-17T11:37:59.062Z,2.13
2022-08-17T11:40:36.384Z,2.58
2022-08-17T11:43:25.373Z,3.58
2022-08-17T11:45:53.355Z,2.20
2022-08-17T11:48:58.627Z,3.22
2022-08-17T11:51:46.673Z,4.05
2022-08-17T11:54:34.403Z,3.33
2022-08-17T11:57:22.513Z,6.25
2022-08-17T11:59:54.304Z,4.55
2022-08-17T12:02:32.395Z,3.10
2022-08-17T12:05:12.751Z,3.50
2022-08-17T12:10:12.209Z,3.65
2022-08-17T12:12:44.129Z,3.28
2022-08-17T12:15:18.561Z,3.08
2022-08-17T12:17:54.750Z,2.42
2022-08-17T12:20:32.081Z,3.08
2022-08-17T12:23:05.024Z,1.90
2022-08-17T12:25:43.091Z,3.03
2022-08-17T12:28:36.238Z,1.67
2022-08-17T12:31:06.676Z,1.70
2022-08-17T12:33:36.977Z,2.05
2022-08-17T12:36:07.585Z,1.80
2022-08-17T12:38:37.527Z,1.45
2022-08-17T12:44:01.680Z,1.88
2022-08-17T12:46:34.815Z,1.77
2022-08-17T12:49:16.266Z,1.38
2022-08-17T12:51:47.581Z,1.70
2022-08-17T12:54:41.583Z,1.73
2022-08-17T12:57:18.458Z,1.60
2022-08-17T12:59:48.008Z,1.80
2022-08-17T13:02:28.352Z,2.00
2022-08-17T13:04:58.471Z,1.40
2022-08-17T13:07:27.424Z,1.45
2022-08-17T13:09:55.127Z,1.60
2022-08-17T13:12:29.915Z,1.70
2022-08-17T13:14:57.922Z,1.55
2022-08-17T13:17:27.188Z,1.67
2022-08-17T13:19:54.981Z,1.90
2022-08-17T13:22:26.536Z,1.75
2022-08-17T13:24:56.591Z,1.90
2022-08-17T13:27:25.612Z,1.88
2022-08-17T13:29:59.660Z,1.70
2022-08-17T13:32:43.761Z,1.92
2022-08-17T13:35:39.626Z,1.90
2022-08-17T13:38:09.518Z,1.55
2022-08-17T13:40:39.122Z,1.83
2022-08-17T13:43:09.728Z,2.05
2022-08-17T13:45:41.042Z,1.88
2022-08-17T13:48:10.989Z,2.13
2022-08-17T13:50:47.094Z,2.42
2022-08-17T13:53:20.026Z,2.45
2022-08-17T13:55:49.484Z,3.70
2022-08-17T13:58:20.838Z,2.22
2022-08-17T14:00:50.780Z,2.55
2022-08-17T14:03:18.823Z,2.50
2022-08-17T14:05:46.782Z,2.47
2022-08-17T14:08:16.139Z,3.25
2022-08-17T14:10:45.345Z,3.40
2022-08-17T14:13:15.454Z,2.73
2022-08-17T14:15:55.402Z,2.80
2022-08-17T14:18:34.320Z,2.53
2022-08-17T14:21:13.018Z,4.05
2022-08-17T14:23:41.046Z,6.20
2022-08-17T14:26:11.456Z,4.68
2022-08-17T14:28:39.239Z,2.50
2022-08-17T14:31:22.746Z,5.10
2022-08-17T14:33:51.610Z,5.32
2022-08-17T14:36:19.404Z,3.55
2022-08-17T14:38:47.132Z,5.45
2022-08-17T14:41:19.996Z,4.55
2022-08-17T14:43:50.772Z,9.68
2022-08-17T14:46:18.548Z,7.55
2022-08-17T14:48:47.021Z,10.70
2022-08-17T14:51:15.188Z,13.07
2022-08-17T14:53:43.107Z,11.85
2022-08-17T14:56:10.800Z,14.38
2022-08-17T14:58:39.965Z,13.00
2022-08-17T15:01:10.375Z,11.98
2022-08-17T15:03:41.634Z,10.60
2022-08-17T15:08:59.800Z,11.38
2022-08-17T15:11:30.337Z,9.73
2022-08-17T15:13:58.569Z,7.55
2022-08-17T15:22:17.192Z,7.30
2022-08-17T15:25:09.202Z,5.75
2022-08-17T15:27:55.629Z,5.93
2022-08-17T15:33:37.816Z,5.80
2022-08-17T15:36:07.550Z,5.18
2022-08-17T15:38:41.456Z,5.13
2022-08-17T15:41:15.463Z,4.90
2022-08-17T15:43:43.761Z,5.22
2022-08-17T15:46:12.892Z,6.05
2022-08-17T15:48:42.179Z,5.60
2022-08-17T15:51:13.493Z,5.68
2022-08-17T15:53:44.564Z,5.75
2022-08-17T15:56:19.487Z,6.00
2022-08-17T15:58:48.549Z,4.97
2022-08-17T16:02:15.416Z,5.63
2022-08-17T16:04:29.722Z,5.72
2022-08-17T16:06:57.214Z,5.90
2022-08-17T16:09:25.503Z,5.28
2022-08-17T16:11:56.288Z,5.07
2022-08-17T16:14:30.322Z,6.05
2022-08-17T16:17:01.881Z,5.30
2022-08-17T16:19:29.885Z,4.88
2022-08-17T16:21:58.139Z,5.88
2022-08-17T16:24:26.097Z,5.75
2022-08-17T16:26:55.485Z,5.07
2022-08-17T16:29:23.779Z,6.35
2022-08-17T16:31:52.003Z,5.13
2022-08-17T16:34:20.225Z,5.97
2022-08-17T16:36:54.750Z,6.25
2022-08-17T16:39:25.632Z,5.57
2022-08-17T16:41:53.473Z,5.38
2022-08-17T16:44:21.945Z,5.72
2022-08-17T16:46:53.704Z,5.30
2022-08-17T16:49:35.706Z,6.20
2022-08-17T16:52:07.664Z,6.30
2022-08-17T16:54:37.896Z,5.75
2022-08-17T16:57:05.914Z,5.90
2022-08-17T16:59:42.184Z,5.25
2022-08-17T17:02:14.225Z,5.50
2022-08-17T17:04:47.295Z,6.93
2022-08-17T17:07:36.691Z,5.75
2022-08-17T17:10:07.139Z,6.78
2022-08-17T17:13:01.091Z,6.25
2022-08-17T17:15:29.499Z,6.85
2022-08-17T17:18:07.012Z,6.60
2022-08-17T17:20:42.663Z,6.20
2022-08-17T17:23:11.300Z,6.45
2022-08-17T17:25:56.099Z,5.72
2022-08-17T17:28:39.545Z,6.50
2022-08-17T17:31:13.393Z,6.25
2022-08-17T17:33:47.833Z,6.28
2022-08-17T17:36:30.815Z,6.43
2022-08-17T17:39:09.777Z,6.45
2022-08-17T17:41:54.894Z,6.93
2022-08-17T17:44:28.038Z,6.57
2022-08-17T17:47:00.199Z,6.13
2022-08-17T17:49:42.579Z,4.70
2022-08-17T17:52:19.426Z,6.50
2022-08-17T17:54:50.578Z,5.20
2022-08-17T18:08:53.053Z,5.50
2022-08-17T18:32:28.593Z,6.15
2022-08-17T18:35:03.039Z,5.90
2022-08-17T18:37:52.759Z,6.00
2022-08-17T18:40:21.598Z,5.88
2022-08-17T18:42:50.692Z,5.05
2022-08-17T18:45:48.081Z,5.32
2022-08-17T18:48:23.487Z,5.13
2022-08-17T18:50:53.478Z,4.70
2022-08-17T18:53:21.528Z,5.38
2022-08-17T18:56:16.984Z,5.72
2022-08-17T18:58:51.114Z,5.40
2022-08-17T19:01:22.217Z,5.75
2022-08-17T19:06:39.576Z,5.32
2022-08-17T19:09:28.564Z,5.97
2022-08-17T19:11:59.241Z,6.32
2022-08-17T19:14:28.519Z,6.40
2022-08-17T19:17:19.931Z,7.85
2022-08-17T19:19:51.800Z,7.10
2022-08-17T19:22:29.272Z,6.90
2022-08-17T19:25:12.380Z,6.75
2022-08-17T19:27:51.116Z,5.65
2022-08-17T19:30:25.519Z,5.78
2022-08-17T19:32:53.409Z,5.40
2022-08-17T19:35:22.216Z,5.90
2022-08-17T19:37:59.763Z,6.47
2022-08-17T19:40:52.263Z,6.45
2022-08-17T19:49:55.347Z,6.80
2022-08-17T19:52:32.524Z,7.15
2022-08-17T19:55:20.414Z,6.57
2022-08-17T19:57:55.279Z,5.63
2022-08-17T20:10:12.211Z,6.25
2022-08-17T20:12:45.313Z,7.00
2022-08-17T20:15:20.741Z,6.20
2022-08-17T20:17:49.633Z,6.45
2022-08-17T20:20:37.393Z,7.15
2022-08-17T20:23:18.494Z,6.65
2022-08-17T20:25:46.827Z,6.72
2022-08-17T20:28:24.042Z,7.20
2022-08-17T20:30:52.763Z,7.53
2022-08-17T20:33:27.055Z,7.00
2022-08-17T20:36:14.424Z,7.13
2022-08-17T20:39:00.980Z,7.07
2022-08-17T20:41:31.256Z,7.57
2022-08-17T20:44:00.046Z,7.00
2022-08-17T20:46:45.077Z,7.25
2022-08-17T20:49:22.477Z,7.82
2022-08-17T20:52:00.545Z,6.47
2022-08-17T20:54:48.631Z,7.03
2022-08-17T20:57:32.083Z,7.40
2022-08-17T21:00:06.406Z,6.60
2022-08-17T21:02:40.388Z,6.72
2022-08-17T21:05:30.646Z,7.68
2022-08-17T21:08:00.721Z,6.80
2022-08-17T21:10:30.697Z,7.30
2022-08-17T21:13:04.613Z,6.77
2022-08-17T21:15:51.776Z,7.53
2022-08-17T21:18:19.834Z,6.55
2022-08-17T21:21:06.596Z,6.35
2022-08-17T21:23:51.321Z,6.68
2022-08-17T21:26:30.407Z,6.47
2022-08-17T21:29:30.878Z,6.75
2022-08-17T21:32:05.241Z,6.45
2022-08-17T21:34:42.593Z,7.93
2022-08-17T21:37:19.761Z,7.97
2022-08-17T21:39:50.505Z,7.93
2022-08-17T21:42:23.627Z,8.95
2022-08-17T21:44:53.116Z,9.07
2022-08-17T21:47:23.677Z,10.32
2022-08-17T21:49:52.273Z,9.75
2022-08-17T21:52:21.838Z,11.27
2022-08-17T21:54:54.299Z,11.23
2022-08-17T21:57:23.677Z,11.63
2022-08-17T21:59:52.921Z,11.27
2022-08-17T22:02:22.113Z,11.65
2022-08-17T22:05:00.419Z,11.27
2022-08-17T22:07:36.210Z,11.38
2022-08-17T22:10:04.680Z,10.43
2022-08-17T22:12:32.415Z,9.70
2022-08-17T22:15:06.038Z,10.43
2022-08-17T22:17:40.468Z,9.57
2022-08-17T22:20:16.785Z,8.73
2022-08-17T22:23:15.443Z,7.70
2022-08-17T22:26:00.668Z,7.80
2022-08-17T22:28:36.731Z,7.00
2022-08-17T22:31:14.790Z,6.07
2022-08-17T22:33:42.588Z,6.97
2022-08-17T22:36:15.176Z,6.78
2022-08-17T22:38:43.846Z,6.43
2022-08-17T22:41:24.629Z,6.85
2022-08-17T22:44:01.507Z,7.13
2022-08-17T22:46:29.578Z,6.53
2022-08-17T22:48:59.323Z,6.60
2022-08-17T22:51:30.230Z,8.50
2022-08-17T22:57:09.726Z,9.65
2022-08-17T22:59:43.925Z,9.75
2022-08-17T23:02:16.807Z,10.48
2022-08-17T23:04:47.780Z,10.13
2022-08-17T23:09:53.073Z,7.38
2022-08-17T23:12:24.226Z,9.38
2022-08-17T23:14:57.124Z,6.95
2022-08-17T23:17:25.029Z,7.60
2022-08-17T23:19:53.485Z,6.65
2022-08-17T23:22:21.359Z,7.18
2022-08-17T23:24:50.445Z,6.72
2022-08-17T23:27:20.219Z,6.53
2022-08-17T23:29:48.670Z,6.15
2022-08-17T23:32:17.006Z,5.93
2022-08-17T23:34:47.043Z,6.68
2022-08-17T23:37:15.487Z,6.33
2022-08-17T23:39:45.042Z,5.85
2022-08-17T23:42:13.876Z,6.65
2022-08-17T23:44:43.635Z,6.63
2022-08-17T23:47:11.727Z,6.50
2022-08-17T23:49:41.420Z,7.32
2022-08-17T23:52:12.563Z,6.30
2022-08-17T23:54:44.147Z,6.47
2022-08-17T23:57:12.772Z,6.75
2022-08-17T23:59:40.573Z,7.00
